Time;durP1;ratioP1;P1;durP2;ratioP2;P2;SDS_P1;SDS_P2;PMS_P1;PMS_P2;Temp;Humidity;BMP_temperature;BMP_pressure;BME280_temperature;BME280_humidity;BME280_pressure;Samples;Min_cycle;Max_cycle;Signal;HPM_P1;HPM_P2
2022/09/05 14:27:46;;;;;;;2.00;1.90;;;;;;;;;;5003295;28;20454;-82
2022/09/05 14:30:28;;;;;;;3.87;2.17;;;;;;;;;;5006071;28;20449;-85
2022/09/05 14:33:02;;;;;;;3.20;1.63;;;;;;;;;;4990240;28;20466;-86
2022/09/05 14:35:32;;;;;;;2.67;2.07;;;;;;;;;;5002753;28;21015;-85
2022/09/05 14:38:04;;;;;;;2.23;2.03;;;;;;;;;;5007363;28;20435;-82
2022/09/05 14:40:46;;;;;;;2.60;1.77;;;;;;;;;;5002025;28;20539;-80
2022/09/05 14:43:23;;;;;;;1.93;1.60;;;;;;;;;;4997105;28;20998;-86
2022/09/05 14:45:57;;;;;;;2.17;1.80;;;;;;;;;;5006669;28;21132;-82
2022/09/05 14:48:31;;;;;;;2.03;1.83;;;;;;;;;;5007612;28;20436;-87
2022/09/05 14:51:06;;;;;;;1.87;1.63;;;;;;;;;;4992531;28;20538;-81
2022/09/05 14:53:34;;;;;;;1.63;1.53;;;;;;;;;;4990157;28;20469;-81
2022/09/05 14:56:04;;;;;;;3.47;1.87;;;;;;;;;;4998585;28;20482;-79
2022/09/05 14:58:33;;;;;;;1.70;1.60;;;;;;;;;;4990782;28;20820;-82
2022/09/05 15:01:02;;;;;;;1.87;1.77;;;;;;;;;;4997208;28;20467;-82
2022/09/05 15:03:35;;;;;;;1.60;1.50;;;;;;;;;;5000153;28;20464;-84
2022/09/05 15:06:02;;;;;;;2.60;1.50;;;;;;;;;;4991573;28;20844;-81
2022/09/05 15:08:30;;;;;;;2.60;1.67;;;;;;;;;;5005034;28;20525;-81
2022/09/05 15:11:00;;;;;;;1.80;1.70;;;;;;;;;;5006728;28;20445;-82
2022/09/05 15:13:29;;;;;;;1.60;1.40;;;;;;;;;;4992741;28;20474;-81
2022/09/05 15:16:07;;;;;;;1.60;1.50;;;;;;;;;;5009385;28;20522;-84
2022/09/05 15:18:37;;;;;;;3.30;1.70;;;;;;;;;;4997728;28;20436;-80
2022/09/05 15:21:20;;;;;;;2.13;1.83;;;;;;;;;;4998322;28;20444;-80
2022/09/05 15:23:57;;;;;;;2.90;1.40;;;;;;;;;;4997727;28;20537;-81
2022/09/05 15:26:24;;;;;;;2.60;1.73;;;;;;;;;;5001619;28;20559;-81
2022/09/05 15:28:52;;;;;;;1.50;1.40;;;;;;;;;;5002575;28;20435;-83
2022/09/05 15:31:26;;;;;;;1.40;1.30;;;;;;;;;;5005316;28;20522;-81
2022/09/05 15:33:55;;;;;;;2.00;1.80;;;;;;;;;;5000719;28;20447;-80
2022/09/05 15:36:31;;;;;;;2.40;1.70;;;;;;;;;;4999066;28;20436;-80
2022/09/05 15:38:58;;;;;;;1.80;1.60;;;;;;;;;;4994789;28;20543;-83
2022/09/05 15:41:26;;;;;;;2.53;1.70;;;;;;;;;;4991185;28;20539;-82
2022/09/05 15:43:57;;;;;;;1.97;1.67;;;;;;;;;;5001451;28;20471;-85
2022/09/05 15:46:28;;;;;;;3.40;1.90;;;;;;;;;;4992954;28;20460;-81
2022/09/05 15:48:56;;;;;;;2.10;1.90;;;;;;;;;;4999996;28;20443;-83
2022/09/05 15:51:34;;;;;;;2.70;1.87;;;;;;;;;;4999122;28;20450;-83
2022/09/05 15:54:02;;;;;;;1.73;1.60;;;;;;;;;;5004132;28;20463;-84
2022/09/05 15:56:29;;;;;;;2.07;1.83;;;;;;;;;;5006874;28;20474;-83
2022/09/05 15:58:58;;;;;;;1.97;1.77;;;;;;;;;;4989315;28;20479;-86
2022/09/05 16:01:29;;;;;;;4.07;1.90;;;;;;;;;;4988583;28;20463;-82
2022/09/05 16:03:57;;;;;;;2.10;1.70;;;;;;;;;;4993664;28;21177;-84
2022/09/05 16:06:28;;;;;;;1.73;1.60;;;;;;;;;;5001391;28;20448;-83
2022/09/05 16:08:56;;;;;;;1.80;1.63;;;;;;;;;;4990472;28;20456;-83
2022/09/05 16:11:24;;;;;;;1.53;1.43;;;;;;;;;;5007271;28;20541;-81
2022/09/05 16:13:53;;;;;;;2.90;1.97;;;;;;;;;;4999535;28;20463;-84
2022/09/05 16:16:20;;;;;;;2.60;2.03;;;;;;;;;;5004654;28;21061;-81
2022/09/05 16:18:52;;;;;;;1.90;1.70;;;;;;;;;;5005201;28;20435;-82
2022/09/05 16:21:20;;;;;;;1.87;1.67;;;;;;;;;;4993738;28;21192;-83
2022/09/05 16:23:49;;;;;;;3.00;1.77;;;;;;;;;;4997130;28;20546;-80
2022/09/05 16:26:19;;;;;;;2.83;1.97;;;;;;;;;;5001875;28;20459;-80
2022/09/05 16:28:48;;;;;;;3.70;2.30;;;;;;;;;;4999100;28;21413;-81
2022/09/05 16:31:18;;;;;;;2.67;2.10;;;;;;;;;;4989912;28;20546;-80
2022/09/05 16:33:47;;;;;;;3.20;2.27;;;;;;;;;;4992615;28;20570;-82
2022/09/05 16:36:17;;;;;;;2.60;2.17;;;;;;;;;;4997632;28;20534;-82
2022/09/05 16:38:48;;;;;;;4.30;3.03;;;;;;;;;;4998537;28;20439;-81
2022/09/05 16:41:18;;;;;;;2.73;2.03;;;;;;;;;;5001780;28;20518;-82
2022/09/05 16:43:49;;;;;;;4.43;3.27;;;;;;;;;;5004763;28;21014;-83
2022/09/05 16:46:19;;;;;;;3.43;2.30;;;;;;;;;;4991549;28;20447;-85
2022/09/05 16:48:50;;;;;;;4.10;2.60;;;;;;;;;;4984763;28;20443;-86
2022/09/05 16:51:23;;;;;;;3.63;2.80;;;;;;;;;;4991791;28;21010;-85
2022/09/05 16:53:53;;;;;;;3.10;2.67;;;;;;;;;;5001011;28;20470;-83
2022/09/05 16:56:23;;;;;;;4.33;3.20;;;;;;;;;;5001189;28;20941;-79
2022/09/05 16:58:51;;;;;;;3.67;2.83;;;;;;;;;;5004772;28;20446;-81
2022/09/05 17:01:21;;;;;;;5.40;2.53;;;;;;;;;;4994361;28;21168;-82
2022/09/05 17:03:53;;;;;;;3.37;2.47;;;;;;;;;;4990465;28;20468;-85
2022/09/05 17:06:24;;;;;;;4.93;2.73;;;;;;;;;;5007415;28;20796;-84
2022/09/05 17:08:54;;;;;;;2.60;2.20;;;;;;;;;;4991884;28;20470;-84
2022/09/05 17:11:22;;;;;;;2.60;2.40;;;;;;;;;;5002032;28;20439;-80
2022/09/05 17:13:51;;;;;;;3.13;2.57;;;;;;;;;;4998827;28;20524;-82
2022/09/05 17:16:22;;;;;;;3.00;2.30;;;;;;;;;;4995472;28;20485;-80
2022/09/05 17:18:51;;;;;;;3.23;2.37;;;;;;;;;;5001665;28;20447;-83
2022/09/05 17:21:23;;;;;;;3.23;2.63;;;;;;;;;;5005323;28;20427;-84
2022/09/05 17:23:53;;;;;;;3.27;2.73;;;;;;;;;;4998791;28;20451;-84
2022/09/05 17:26:31;;;;;;;3.07;2.50;;;;;;;;;;4992968;28;20481;-80
2022/09/05 17:29:09;;;;;;;6.10;2.93;;;;;;;;;;4999237;28;21002;-83
2022/09/05 17:31:39;;;;;;;4.07;3.07;;;;;;;;;;4994911;28;20505;-81
2022/09/05 17:34:30;;;;;;;2.80;2.40;;;;;;;;;;5005664;28;20463;-81
2022/09/05 17:37:11;;;;;;;3.60;3.10;;;;;;;;;;4999231;28;20451;-80
2022/09/05 17:39:45;;;;;;;3.23;2.60;;;;;;;;;;5002197;28;20557;-83
2022/09/05 17:42:20;;;;;;;4.43;3.37;;;;;;;;;;5005682;28;21136;-85
2022/09/05 17:44:50;;;;;;;3.00;2.50;;;;;;;;;;5006295;28;20445;-81
2022/09/05 17:47:22;;;;;;;3.07;2.47;;;;;;;;;;5002040;28;20814;-80
2022/09/05 17:50:09;;;;;;;5.00;2.50;;;;;;;;;;5004788;28;20547;-79
2022/09/05 17:53:03;;;;;;;6.47;2.80;;;;;;;;;;4994783;28;20462;-80
2022/09/05 17:55:46;;;;;;;3.63;3.07;;;;;;;;;;5009266;28;20612;-80
2022/09/05 17:58:20;;;;;;;3.33;2.80;;;;;;;;;;4990311;28;20820;-85
2022/09/05 18:00:57;;;;;;;4.23;2.53;;;;;;;;;;4990876;28;20427;-84
2022/09/05 18:03:40;;;;;;;4.60;2.60;;;;;;;;;;4995881;28;20906;-81
2022/09/05 18:06:08;;;;;;;3.30;2.73;;;;;;;;;;5003873;28;20450;-86
2022/09/05 18:08:50;;;;;;;2.70;2.43;;;;;;;;;;5001560;28;20455;-84
2022/09/05 18:11:32;;;;;;;2.90;2.47;;;;;;;;;;4996278;28;20525;-83
2022/09/05 18:14:02;;;;;;;3.77;2.60;;;;;;;;;;4996055;28;20908;-84
2022/09/05 18:16:30;;;;;;;2.77;2.57;;;;;;;;;;4997176;28;20510;-79
2022/09/05 18:18:58;;;;;;;3.30;2.57;;;;;;;;;;4992269;28;20506;-80
2022/09/05 18:21:41;;;;;;;2.60;2.40;;;;;;;;;;4994317;28;20443;-85
2022/09/05 18:24:12;;;;;;;6.00;3.47;;;;;;;;;;5002732;28;20456;-82
2022/09/05 18:26:40;;;;;;;5.03;3.40;;;;;;;;;;5002044;28;20569;-85
2022/09/05 18:29:15;;;;;;;3.93;3.50;;;;;;;;;;5006556;28;20533;-83
2022/09/05 18:31:57;;;;;;;5.17;3.50;;;;;;;;;;4996831;28;20483;-82
2022/09/05 18:34:39;;;;;;;4.20;3.60;;;;;;;;;;4999330;28;20783;-83
2022/09/05 18:37:20;;;;;;;3.67;3.33;;;;;;;;;;5001558;28;20848;-79
2022/09/05 18:40:04;;;;;;;5.17;4.40;;;;;;;;;;4998569;28;20448;-80
2022/09/05 18:42:31;;;;;;;6.47;4.30;;;;;;;;;;4995664;28;20468;-81
2022/09/05 18:45:04;;;;;;;7.33;4.60;;;;;;;;;;5004398;28;20439;-81
2022/09/05 18:47:35;;;;;;;8.00;4.77;;;;;;;;;;5000374;28;20832;-86
2022/09/05 18:50:04;;;;;;;9.47;5.20;;;;;;;;;;5006655;28;20474;-81
2022/09/05 18:52:32;;;;;;;6.40;5.73;;;;;;;;;;5004465;28;20515;-85
2022/09/05 18:55:02;;;;;;;7.97;5.83;;;;;;;;;;4989847;28;20460;-81
2022/09/05 18:57:30;;;;;;;8.57;6.70;;;;;;;;;;4998205;28;21011;-81
2022/09/05 18:59:59;;;;;;;8.73;7.83;;;;;;;;;;4989564;28;20562;-82
2022/09/05 19:02:30;;;;;;;10.00;8.97;;;;;;;;;;4991265;28;20487;-85
2022/09/05 19:04:59;;;;;;;9.63;8.43;;;;;;;;;;5010073;28;20490;-82
2022/09/05 19:07:27;;;;;;;10.10;9.00;;;;;;;;;;5000720;28;20449;-83
2022/09/05 19:10:01;;;;;;;9.63;8.60;;;;;;;;;;4992110;28;20467;-82
2022/09/05 19:12:28;;;;;;;9.77;8.83;;;;;;;;;;5005644;28;20462;-81
2022/09/05 19:14:56;;;;;;;9.10;7.90;;;;;;;;;;5005783;28;20837;-79
2022/09/05 19:17:25;;;;;;;10.17;8.70;;;;;;;;;;4992629;28;20566;-80
2022/09/05 19:20:09;;;;;;;9.37;8.10;;;;;;;;;;5009061;28;20475;-83
2022/09/05 19:22:40;;;;;;;12.90;8.40;;;;;;;;;;4999924;28;20562;-81
2022/09/05 19:25:08;;;;;;;10.17;6.73;;;;;;;;;;5003388;28;20865;-86
2022/09/05 19:27:36;;;;;;;7.03;6.07;;;;;;;;;;4998077;28;20903;-81
2022/09/05 19:30:04;;;;;;;8.47;6.10;;;;;;;;;;4991873;28;20440;-85
2022/09/05 19:32:31;;;;;;;11.97;5.23;;;;;;;;;;5001476;28;20447;-80
2022/09/05 19:34:59;;;;;;;5.83;4.87;;;;;;;;;;5005680;28;20527;-79
2022/09/05 19:37:26;;;;;;;6.00;4.60;;;;;;;;;;5005968;28;20475;-84
2022/09/05 19:39:55;;;;;;;6.13;4.10;;;;;;;;;;4996949;28;20483;-83
2022/09/05 19:42:22;;;;;;;4.20;3.80;;;;;;;;;;4997001;28;20523;-85
2022/09/05 19:44:54;;;;;;;5.13;4.27;;;;;;;;;;4992891;28;20522;-85
2022/09/05 19:47:27;;;;;;;5.53;3.87;;;;;;;;;;5002401;28;20470;-81
2022/09/05 19:49:59;;;;;;;7.17;3.90;;;;;;;;;;4991864;28;20978;-84
2022/09/05 19:52:27;;;;;;;4.70;4.20;;;;;;;;;;5003142;28;20439;-80
2022/09/05 19:54:56;;;;;;;5.40;4.30;;;;;;;;;;5002479;28;20443;-83
2022/09/05 19:57:24;;;;;;;4.80;4.10;;;;;;;;;;5005837;28;20574;-81
2022/09/05 19:59:53;;;;;;;5.47;4.10;;;;;;;;;;5005098;28;20542;-87
2022/09/05 20:02:24;;;;;;;3.93;3.60;;;;;;;;;;4992591;28;20447;-86
2022/09/05 20:04:52;;;;;;;4.60;3.80;;;;;;;;;;4989748;28;20556;-86
2022/09/05 20:07:20;;;;;;;4.40;3.60;;;;;;;;;;4990092;28;20535;-84
2022/09/05 20:09:48;;;;;;;4.57;3.60;;;;;;;;;;4998105;28;20538;-86
2022/09/05 20:12:19;;;;;;;5.67;3.70;;;;;;;;;;4988104;28;20495;-81
2022/09/05 20:14:47;;;;;;;4.03;3.53;;;;;;;;;;4990243;28;20883;-83
2022/09/05 20:17:23;;;;;;;7.17;3.60;;;;;;;;;;4990404;28;20575;-86
2022/09/05 20:20:03;;;;;;;4.63;4.20;;;;;;;;;;5001950;28;20431;-83
2022/09/05 20:22:31;;;;;;;5.90;4.40;;;;;;;;;;5004147;28;20451;-91
2022/09/05 20:24:59;;;;;;;6.00;4.23;;;;;;;;;;4990689;28;20436;-86
2022/09/05 20:27:29;;;;;;;6.00;4.60;;;;;;;;;;5004780;28;20494;-82
2022/09/05 20:29:58;;;;;;;6.13;5.53;;;;;;;;;;4994145;28;20542;-82
2022/09/05 20:32:30;;;;;;;9.50;5.87;;;;;;;;;;5000314;28;20450;-83
2022/09/05 20:34:57;;;;;;;8.20;6.10;;;;;;;;;;5008745;28;20870;-84
2022/09/05 20:37:28;;;;;;;7.07;6.03;;;;;;;;;;5002342;28;20484;-84
2022/09/05 20:39:55;;;;;;;6.23;5.63;;;;;;;;;;5002478;28;20559;-83
2022/09/05 20:42:28;;;;;;;7.70;6.87;;;;;;;;;;5005940;28;20533;-87
2022/09/05 20:44:59;;;;;;;8.57;7.07;;;;;;;;;;5008670;28;20466;-81
2022/09/05 20:47:33;;;;;;;7.80;6.83;;;;;;;;;;4999161;28;20440;-87
2022/09/05 20:50:01;;;;;;;8.03;6.63;;;;;;;;;;4998884;28;20451;-82
2022/09/05 20:52:29;;;;;;;6.10;5.10;;;;;;;;;;5000694;28;20435;-82
2022/09/05 20:54:57;;;;;;;5.20;4.70;;;;;;;;;;4991896;28;20480;-82
2022/09/05 20:57:28;;;;;;;6.10;5.10;;;;;;;;;;5007644;28;20522;-88
2022/09/05 21:00:03;;;;;;;6.67;4.50;;;;;;;;;;5002726;28;20867;-82
2022/09/05 21:02:32;;;;;;;5.67;4.50;;;;;;;;;;5007857;28;20542;-80
2022/09/05 21:05:01;;;;;;;4.50;4.10;;;;;;;;;;5002897;28;20477;-82
2022/09/05 21:07:34;;;;;;;4.20;3.80;;;;;;;;;;5002002;28;20467;-86
2022/09/05 21:10:03;;;;;;;6.00;4.90;;;;;;;;;;4992837;28;20439;-82
2022/09/05 21:12:41;;;;;;;4.83;3.50;;;;;;;;;;4999529;28;20439;-85
2022/09/05 21:15:10;;;;;;;4.67;4.07;;;;;;;;;;4992032;28;20446;-80
2022/09/05 21:17:38;;;;;;;5.90;3.80;;;;;;;;;;4993742;28;20518;-86
2022/09/05 21:20:08;;;;;;;7.33;4.93;;;;;;;;;;4998496;28;21007;-84
2022/09/05 21:22:36;;;;;;;7.73;4.20;;;;;;;;;;5007167;28;20952;-81
2022/09/05 21:25:18;;;;;;;5.30;4.20;;;;;;;;;;5007934;28;20533;-80
2022/09/05 21:27:55;;;;;;;5.20;4.70;;;;;;;;;;5001250;28;20475;-81
2022/09/05 21:30:25;;;;;;;4.50;4.10;;;;;;;;;;5006433;28;20903;-82
2022/09/05 21:32:53;;;;;;;5.60;4.43;;;;;;;;;;5000320;28;20463;-83
2022/09/05 21:35:20;;;;;;;5.27;4.40;;;;;;;;;;5000760;28;20443;-80
2022/09/05 21:37:48;;;;;;;5.83;4.30;;;;;;;;;;4999882;28;20895;-85
2022/09/05 21:40:15;;;;;;;4.50;4.10;;;;;;;;;;4995322;28;20862;-80
2022/09/05 21:42:44;;;;;;;6.23;4.30;;;;;;;;;;4996199;28;20471;-80
2022/09/05 21:45:11;;;;;;;4.60;4.13;;;;;;;;;;5010356;28;20439;-81
2022/09/05 21:47:43;;;;;;;6.07;3.93;;;;;;;;;;5009277;28;20807;-85
2022/09/05 21:50:10;;;;;;;5.87;4.10;;;;;;;;;;5001708;28;20816;-87
2022/09/05 21:52:38;;;;;;;4.07;3.67;;;;;;;;;;4996465;28;20454;-81
2022/09/05 21:55:06;;;;;;;5.90;4.07;;;;;;;;;;4995910;28;20874;-80
2022/09/05 21:57:36;;;;;;;5.50;3.67;;;;;;;;;;4999521;28;20495;-84
2022/09/05 22:00:05;;;;;;;5.27;4.17;;;;;;;;;;5005470;28;20545;-81
2022/09/05 22:02:33;;;;;;;4.70;3.67;;;;;;;;;;4995167;28;20933;-82
2022/09/05 22:05:03;;;;;;;3.83;3.50;;;;;;;;;;5004591;28;20796;-81
2022/09/05 22:07:34;;;;;;;3.53;3.10;;;;;;;;;;5009190;28;20843;-82
2022/09/05 22:10:02;;;;;;;3.37;3.07;;;;;;;;;;5007513;28;20443;-82
2022/09/05 22:12:32;;;;;;;6.43;3.00;;;;;;;;;;5000976;28;20448;-80
2022/09/05 22:14:59;;;;;;;3.93;2.87;;;;;;;;;;4991655;28;20786;-83
2022/09/05 22:17:27;;;;;;;3.10;2.63;;;;;;;;;;4991531;28;20515;-82
2022/09/05 22:19:54;;;;;;;3.20;2.90;;;;;;;;;;5007314;28;20771;-86
2022/09/05 22:22:23;;;;;;;4.27;3.07;;;;;;;;;;4999302;28;20490;-85
2022/09/05 22:24:52;;;;;;;3.30;3.00;;;;;;;;;;4994239;28;20467;-85
2022/09/05 22:27:20;;;;;;;2.93;2.57;;;;;;;;;;5006737;28;20551;-83
2022/09/05 22:29:48;;;;;;;3.33;2.83;;;;;;;;;;5006931;28;20538;-83
2022/09/05 22:32:15;;;;;;;3.20;2.60;;;;;;;;;;5005492;28;20439;-84
2022/09/05 22:34:43;;;;;;;2.83;2.63;;;;;;;;;;5001023;28;20526;-78
2022/09/05 22:37:15;;;;;;;6.23;2.50;;;;;;;;;;4998438;28;20530;-80
2022/09/05 22:39:44;;;;;;;2.43;2.23;;;;;;;;;;5005421;28;20435;-79
2022/09/05 22:42:11;;;;;;;2.50;2.30;;;;;;;;;;4991216;28;20450;-82
2022/09/05 22:44:39;;;;;;;4.47;2.83;;;;;;;;;;4991539;28;20950;-89
2022/09/05 22:47:06;;;;;;;4.67;2.60;;;;;;;;;;4993369;28;20455;-81
2022/09/05 22:49:35;;;;;;;2.90;2.43;;;;;;;;;;5012628;28;20538;-86
2022/09/05 22:52:02;;;;;;;3.77;2.83;;;;;;;;;;5000279;28;20447;-83
2022/09/05 22:54:29;;;;;;;3.30;2.33;;;;;;;;;;5006159;28;21074;-82
2022/09/05 22:56:58;;;;;;;3.13;2.77;;;;;;;;;;4999570;28;20476;-84
2022/09/05 22:59:25;;;;;;;3.10;2.30;;;;;;;;;;4990414;28;20451;-82
2022/09/05 23:01:52;;;;;;;4.03;2.43;;;;;;;;;;5004617;28;20811;-83
2022/09/05 23:04:20;;;;;;;3.10;2.50;;;;;;;;;;4999341;28;20473;-82
2022/09/05 23:06:47;;;;;;;2.40;2.20;;;;;;;;;;4990906;28;20450;-81
2022/09/05 23:09:14;;;;;;;3.10;2.27;;;;;;;;;;4990857;28;20456;-83
2022/09/05 23:11:41;;;;;;;3.83;2.73;;;;;;;;;;5000877;28;20443;-81
2022/09/05 23:14:10;;;;;;;2.50;2.30;;;;;;;;;;5005605;28;20463;-82
2022/09/05 23:16:37;;;;;;;2.40;2.20;;;;;;;;;;5000544;28;20439;-83
2022/09/05 23:19:04;;;;;;;4.33;2.23;;;;;;;;;;4994651;28;20498;-81
2022/09/05 23:21:31;;;;;;;2.50;2.30;;;;;;;;;;4992876;28;20805;-84
2022/09/05 23:23:58;;;;;;;4.33;2.60;;;;;;;;;;5004535;28;20568;-81
2022/09/05 23:26:26;;;;;;;2.50;2.30;;;;;;;;;;4997952;28;20482;-83
2022/09/05 23:28:53;;;;;;;2.47;2.17;;;;;;;;;;4991307;28;20878;-86
2022/09/05 23:31:21;;;;;;;3.07;2.33;;;;;;;;;;5000354;28;20858;-83
2022/09/05 23:33:49;;;;;;;3.03;2.17;;;;;;;;;;4996980;28;20491;-78
2022/09/05 23:36:17;;;;;;;2.30;2.10;;;;;;;;;;5006171;28;20449;-83
2022/09/05 23:38:44;;;;;;;3.47;2.20;;;;;;;;;;5003714;28;20479;-80
2022/09/05 23:41:14;;;;;;;2.27;2.07;;;;;;;;;;4990337;28;20967;-79
2022/09/05 23:43:41;;;;;;;2.87;2.10;;;;;;;;;;4988587;28;20450;-79
2022/09/05 23:46:09;;;;;;;3.20;2.30;;;;;;;;;;4996708;28;20542;-83
2022/09/05 23:48:37;;;;;;;2.30;2.03;;;;;;;;;;4992447;28;20432;-80
2022/09/05 23:51:05;;;;;;;3.10;2.23;;;;;;;;;;4996779;28;20807;-82
2022/09/05 23:53:32;;;;;;;2.17;1.97;;;;;;;;;;4991162;28;20468;-81
2022/09/05 23:56:00;;;;;;;2.63;2.17;;;;;;;;;;4999565;28;20454;-80
2022/09/05 23:58:27;;;;;;;2.57;2.30;;;;;;;;;;5005254;28;20489;-84
